Deutschlandsberg, Austria
Current Conditions -  °F | °C
As of 9:50 AM on Thursday 23 Oct 2014 (Local Time) from LOWG Reporting Station
Broken Clouds Broken Clouds  
Wind Chill: 46°   Ceiling: 5700
Heat Index: 46°   Visibility: 6mi
Dew Point: 39°   Wind: 3mph
Humidity: 76%   Direction: 290°WNW
Pressure: 29.77"   Gusts: NA
Location:  46.82°N, 15.21°E
Report Text: LOWG 230750Z 29003KT 200V330 9999 FEW035 BKN057 08/04 Q1008 NOSIG
Loading
Personal Weather Stations






























Interactive Weather Map
Tropical Storm Tracking
New forecast layout! Learn more

10-Day Weather Forecast

Advertisements
Track Severe Weather on mobile